createdAt,value
2018-09-12T00:02:08.713Z,4.47
2018-09-12T00:04:37.451Z,4.30
2018-09-12T00:07:05.935Z,4.10
2018-09-12T00:09:34.170Z,3.98
2018-09-12T00:12:02.402Z,4.20
2018-09-12T00:14:30.866Z,4.20
2018-09-12T00:16:59.121Z,4.47
2018-09-12T00:19:27.574Z,4.22
2018-09-12T00:21:56.357Z,4.28
2018-09-12T00:24:24.603Z,4.12
2018-09-12T00:26:52.858Z,4.33
2018-09-12T00:29:21.110Z,4.25
2018-09-12T00:31:49.882Z,4.50
2018-09-12T00:34:18.152Z,4.00
2018-09-12T00:36:46.390Z,4.62
2018-09-12T00:39:15.481Z,4.10
2018-09-12T00:41:44.142Z,4.20
2018-09-12T00:44:12.361Z,3.65
2018-09-12T00:46:41.334Z,4.45
2018-09-12T00:49:09.565Z,3.80
2018-09-12T00:51:39.119Z,3.87
2018-09-12T00:54:07.452Z,4.10
2018-09-12T00:56:42.538Z,4.08
2018-09-12T00:59:11.670Z,3.90
2018-09-12T01:01:39.974Z,4.30
2018-09-12T01:04:09.169Z,4.22
2018-09-12T01:06:37.943Z,4.12
2018-09-12T01:09:06.742Z,4.17
2018-09-12T01:11:35.555Z,4.65
2018-09-12T01:14:03.898Z,4.45
2018-09-12T01:16:33.949Z,4.40
2018-09-12T01:19:02.275Z,4.22
2018-09-12T01:21:30.589Z,4.37
2018-09-12T01:23:59.136Z,4.27
2018-09-12T01:26:27.503Z,4.37
2018-09-12T01:28:55.945Z,4.20
2018-09-12T01:31:24.445Z,4.15
2018-09-12T01:33:52.681Z,4.85
2018-09-12T01:36:20.951Z,3.92
2018-09-12T01:38:50.347Z,4.28
2018-09-12T01:41:19.091Z,4.58
2018-09-12T01:43:47.609Z,4.65
2018-09-12T01:46:16.323Z,4.35
2018-09-12T01:48:44.862Z,4.33
2018-09-12T01:51:19.462Z,4.33
2018-09-12T01:53:47.725Z,4.70
2018-09-12T01:56:15.969Z,4.37
2018-09-12T01:58:44.235Z,4.08
2018-09-12T02:01:12.496Z,4.28
2018-09-12T02:03:41.414Z,4.37
2018-09-12T02:06:10.385Z,4.15
2018-09-12T02:08:38.634Z,4.43
2018-09-12T02:11:06.946Z,4.05
2018-09-12T02:13:35.244Z,4.58
2018-09-12T02:16:04.034Z,4.10
2018-09-12T02:18:32.297Z,4.37
2018-09-12T02:21:00.531Z,4.37
2018-09-12T02:23:28.789Z,4.57
2018-09-12T02:25:57.089Z,4.45
2018-09-12T02:28:30.694Z,4.75
2018-09-12T02:30:58.978Z,4.75
2018-09-12T02:33:27.306Z,4.15
2018-09-12T02:36:01.020Z,4.95
2018-09-12T02:38:30.290Z,5.03
2018-09-12T02:40:59.376Z,4.77
2018-09-12T02:43:27.632Z,4.70
2018-09-12T02:45:56.112Z,4.67
2018-09-12T02:48:24.376Z,5.28
2018-09-12T02:50:58.310Z,4.70
2018-09-12T02:53:26.830Z,4.30
2018-09-12T02:55:55.078Z,4.53
2018-09-12T02:58:23.366Z,4.70
2018-09-12T03:00:59.062Z,4.42
2018-09-12T03:03:27.502Z,4.60
2018-09-12T03:05:56.591Z,4.60
2018-09-12T03:08:24.861Z,4.37
2018-09-12T03:10:53.140Z,4.40
2018-09-12T03:13:21.639Z,4.15
2018-09-12T03:15:49.938Z,4.63
2018-09-12T03:18:18.858Z,5.00
2018-09-12T03:20:47.201Z,4.97
2018-09-12T03:23:15.398Z,5.25
2018-09-12T03:25:43.670Z,4.87
2018-09-12T03:28:11.941Z,5.40
2018-09-12T03:30:41.024Z,5.43
2018-09-12T03:33:09.362Z,5.20
2018-09-12T03:35:37.725Z,4.97
2018-09-12T03:38:06.658Z,5.40
2018-09-12T03:40:35.412Z,5.10
2018-09-12T03:43:04.075Z,5.40
2018-09-12T03:45:32.326Z,5.73
2018-09-12T03:48:00.640Z,5.30
2018-09-12T03:50:28.889Z,5.72
2018-09-12T03:52:57.719Z,6.30
2018-09-12T03:55:25.992Z,5.83
2018-09-12T03:57:54.283Z,5.80
2018-09-12T04:00:22.682Z,6.00
2018-09-12T04:05:32.590Z,5.55
2018-09-12T04:08:00.830Z,5.90
2018-09-12T04:10:29.083Z,5.90
2018-09-12T04:12:57.870Z,6.43
2018-09-12T04:15:26.169Z,6.55
2018-09-12T04:17:55.053Z,6.40
2018-09-12T04:20:23.314Z,6.50
2018-09-12T04:22:51.615Z,5.97
2018-09-12T04:25:20.006Z,6.55
2018-09-12T04:27:48.335Z,6.37
2018-09-12T04:30:16.712Z,6.95
2018-09-12T04:32:45.141Z,6.57
2018-09-12T04:35:14.463Z,5.77
2018-09-12T04:37:48.703Z,5.83
2018-09-12T04:40:17.593Z,5.80
2018-09-12T04:42:45.922Z,5.90
2018-09-12T04:45:14.123Z,5.80
2018-09-12T04:47:42.394Z,5.37
2018-09-12T04:50:10.646Z,5.40
2018-09-12T04:52:39.394Z,6.17
2018-09-12T04:55:07.990Z,5.60
2018-09-12T04:57:36.869Z,6.20
2018-09-12T05:00:05.118Z,5.67
2018-09-12T05:02:33.435Z,6.10
2018-09-12T05:05:01.714Z,6.20
2018-09-12T05:07:30.532Z,5.90
2018-09-12T05:09:58.819Z,6.13
2018-09-12T05:12:27.481Z,6.03
2018-09-12T05:14:55.945Z,5.67
2018-09-12T05:17:24.218Z,6.63
2018-09-12T05:19:52.537Z,6.92
2018-09-12T05:22:20.836Z,7.70
2018-09-12T05:24:49.551Z,10.50
2018-09-12T05:27:17.815Z,8.50
2018-09-12T05:29:46.135Z,9.50
2018-09-12T05:32:14.502Z,9.50
2018-09-12T05:34:42.762Z,9.43
2018-09-12T05:37:11.110Z,9.18
2018-09-12T05:39:40.007Z,10.05
2018-09-12T05:42:08.302Z,9.37
2018-09-12T05:44:36.562Z,8.87
2018-09-12T05:47:04.874Z,9.53
2018-09-12T05:49:33.133Z,9.30
2018-09-12T05:52:01.953Z,9.40
2018-09-12T05:54:30.946Z,9.30
2018-09-12T05:56:59.226Z,9.73
2018-09-12T05:59:27.494Z,9.78
2018-09-12T06:02:02.275Z,9.80
2018-09-12T06:04:32.021Z,9.08
2018-09-12T06:07:00.997Z,10.18
2018-09-12T06:09:29.560Z,9.28
2018-09-12T06:11:57.838Z,9.85
2018-09-12T06:14:26.528Z,9.08
2018-09-12T06:16:54.851Z,9.35
2018-09-12T06:19:23.149Z,9.53
2018-09-12T06:21:51.846Z,8.58
2018-09-12T06:24:20.114Z,9.08
2018-09-12T06:26:48.395Z,9.05
2018-09-12T06:29:16.818Z,9.75
2018-09-12T06:31:45.170Z,9.80
2018-09-12T06:34:13.547Z,9.68
2018-09-12T06:36:41.986Z,10.08
2018-09-12T06:39:12.168Z,10.63
2018-09-12T06:41:40.907Z,10.28
2018-09-12T06:44:09.380Z,10.88
2018-09-12T06:46:37.758Z,10.80
2018-09-12T06:49:07.053Z,10.70
2018-09-12T06:51:35.581Z,11.00
2018-09-12T06:54:04.034Z,10.43
2018-09-12T06:56:33.245Z,10.23
2018-09-12T06:59:01.539Z,10.28
2018-09-12T07:01:29.812Z,10.80
2018-09-12T07:03:58.229Z,11.00
2018-09-12T07:06:27.194Z,11.25
2018-09-12T07:08:55.839Z,10.85
2018-09-12T07:11:24.629Z,11.63
2018-09-12T07:13:53.429Z,10.65
2018-09-12T07:16:21.705Z,10.05
2018-09-12T07:18:50.039Z,10.80
2018-09-12T07:21:18.353Z,9.68
2018-09-12T07:23:46.727Z,10.35
2018-09-12T07:26:15.066Z,9.70
2018-09-12T07:28:43.357Z,10.10
2018-09-12T07:31:11.639Z,9.00
2018-09-12T07:33:39.920Z,10.48
2018-09-12T07:36:08.160Z,8.95
2018-09-12T07:38:43.755Z,9.30
2018-09-12T07:41:12.318Z,9.63
2018-09-12T07:43:40.595Z,9.48
2018-09-12T07:46:09.227Z,9.68
2018-09-12T07:48:37.514Z,9.10
2018-09-12T07:51:06.300Z,9.43
2018-09-12T07:53:34.725Z,8.90
2018-09-12T07:56:03.079Z,8.80
2018-09-12T07:58:31.301Z,8.80
2018-09-12T08:01:07.385Z,8.48
2018-09-12T08:03:35.695Z,8.48
2018-09-12T08:06:04.348Z,9.43
2018-09-12T08:08:32.587Z,7.97
2018-09-12T08:11:00.834Z,7.95
2018-09-12T08:13:29.289Z,7.45
2018-09-12T08:15:57.554Z,7.00
2018-09-12T08:18:25.798Z,6.72
2018-09-12T08:20:54.062Z,8.25
2018-09-12T08:23:22.385Z,7.85
2018-09-12T08:25:50.713Z,6.97
2018-09-12T08:28:19.487Z,9.93
2018-09-12T08:30:47.753Z,8.50
2018-09-12T08:33:16.051Z,9.30
2018-09-12T08:35:44.295Z,8.90
2018-09-12T08:38:12.936Z,7.50
2018-09-12T08:40:41.594Z,8.15
2018-09-12T08:43:09.854Z,7.87
2018-09-12T08:45:38.689Z,7.20
2018-09-12T08:48:07.038Z,8.10
2018-09-12T08:50:35.512Z,8.85
2018-09-12T08:53:04.011Z,7.03
2018-09-12T08:55:32.234Z,9.45
2018-09-12T08:58:00.753Z,7.75
2018-09-12T09:00:35.935Z,9.45
2018-09-12T09:03:06.354Z,8.48
2018-09-12T09:05:35.286Z,8.03
2018-09-12T09:08:03.738Z,7.90
2018-09-12T09:10:32.037Z,8.03
2018-09-12T09:13:00.904Z,7.42
2018-09-12T09:15:29.142Z,7.42
2018-09-12T09:17:57.376Z,9.33
2018-09-12T09:20:26.093Z,9.65
2018-09-12T09:22:55.165Z,7.35
2018-09-12T09:25:25.245Z,6.95
2018-09-12T09:27:54.627Z,6.85
2018-09-12T09:30:26.820Z,7.78
2018-09-12T09:32:55.133Z,6.70
2018-09-12T09:35:23.881Z,7.50
2018-09-12T09:37:52.502Z,6.55
2018-09-12T09:40:21.268Z,6.92
2018-09-12T09:42:49.565Z,6.30
2018-09-12T09:45:25.557Z,7.35
2018-09-12T09:47:53.874Z,11.28
2018-09-12T09:50:22.359Z,6.50
2018-09-12T09:52:50.840Z,6.03
2018-09-12T09:55:19.091Z,5.50
2018-09-12T09:57:47.316Z,6.05
2018-09-12T10:00:21.227Z,4.70
2018-09-12T10:02:54.650Z,8.63
2018-09-12T10:08:05.226Z,6.20
2018-09-12T10:10:33.502Z,5.35
2018-09-12T10:13:02.185Z,5.17
2018-09-12T10:15:30.430Z,4.55
2018-09-12T10:17:58.687Z,3.92
2018-09-12T10:20:26.997Z,9.65
2018-09-12T10:22:55.790Z,5.28
2018-09-12T10:25:24.010Z,5.10
2018-09-12T10:27:52.280Z,4.47
2018-09-12T10:30:20.566Z,4.42
2018-09-12T10:32:49.107Z,4.00
2018-09-12T10:35:17.349Z,4.45
2018-09-12T10:37:50.054Z,4.05
2018-09-12T10:40:18.654Z,4.58
2018-09-12T10:42:47.264Z,4.10
2018-09-12T10:45:15.946Z,4.17
2018-09-12T10:47:44.286Z,4.10
2018-09-12T10:50:12.639Z,4.35
2018-09-12T10:52:41.314Z,3.72
2018-09-12T10:55:09.538Z,5.00
2018-09-12T10:57:38.102Z,3.60
2018-09-12T11:00:07.283Z,3.27
2018-09-12T11:02:35.533Z,3.70
2018-09-12T11:05:03.841Z,3.60
2018-09-12T11:07:32.705Z,3.70
2018-09-12T11:10:01.143Z,4.05
2018-09-12T11:12:29.387Z,3.65
2018-09-12T11:14:58.145Z,3.42
2018-09-12T11:17:26.965Z,3.90
2018-09-12T11:19:55.190Z,3.58
2018-09-12T11:22:23.968Z,4.58
2018-09-12T11:24:52.236Z,4.35
2018-09-12T11:27:21.088Z,4.65
2018-09-12T11:29:50.605Z,3.70
2018-09-12T11:32:18.879Z,4.17
2018-09-12T11:34:47.407Z,4.28
2018-09-12T11:37:15.642Z,4.00
2018-09-12T11:39:44.233Z,4.50
2018-09-12T11:42:12.464Z,4.42
2018-09-12T11:44:40.689Z,4.65
2018-09-12T11:47:08.950Z,4.33
2018-09-12T11:49:37.682Z,4.83
2018-09-12T11:52:06.412Z,4.60
2018-09-12T11:54:34.652Z,4.55
2018-09-12T11:57:02.885Z,3.98
2018-09-12T11:59:31.797Z,4.00
2018-09-12T12:02:00.150Z,4.40
2018-09-12T12:04:28.357Z,4.75
2018-09-12T12:06:56.695Z,3.90
2018-09-12T12:09:24.962Z,3.80
2018-09-12T12:11:53.494Z,3.90
2018-09-12T12:14:22.162Z,3.60
2018-09-12T12:16:50.804Z,3.62
2018-09-12T12:19:19.750Z,4.15
2018-09-12T12:24:28.811Z,4.03
2018-09-12T12:26:57.060Z,4.05
2018-09-12T12:29:25.363Z,3.95
2018-09-12T12:31:53.626Z,3.98
2018-09-12T12:34:22.477Z,3.90
2018-09-12T12:36:50.730Z,3.60
2018-09-12T12:39:19.146Z,3.67
2018-09-12T12:41:47.622Z,3.75
2018-09-12T12:44:16.282Z,3.45
2018-09-12T12:46:44.938Z,3.75
2018-09-12T12:49:13.678Z,3.60
2018-09-12T12:51:42.405Z,3.40
2018-09-12T12:54:10.659Z,4.00
2018-09-12T12:56:38.920Z,3.10
2018-09-12T12:59:07.423Z,3.87
2018-09-12T13:01:35.726Z,3.47
2018-09-12T13:04:04.058Z,3.40
2018-09-12T13:06:32.481Z,3.80
2018-09-12T13:09:00.919Z,3.52
2018-09-12T13:11:29.818Z,3.62
2018-09-12T13:13:58.418Z,3.42
2018-09-12T13:16:26.889Z,3.50
2018-09-12T13:18:55.164Z,4.05
2018-09-12T13:21:23.445Z,3.95
2018-09-12T13:23:52.052Z,3.65
2018-09-12T13:26:20.305Z,3.67
2018-09-12T13:28:49.130Z,3.50
2018-09-12T13:31:17.441Z,3.70
2018-09-12T13:33:45.718Z,3.67
2018-09-12T13:36:14.056Z,3.30
2018-09-12T13:38:44.098Z,3.25
2018-09-12T13:41:12.341Z,3.52
2018-09-12T13:43:40.575Z,3.45
2018-09-12T13:46:08.871Z,3.10
2018-09-12T13:48:37.622Z,3.12
2018-09-12T13:51:07.258Z,3.00
2018-09-12T13:53:36.158Z,3.52
2018-09-12T13:56:04.421Z,3.37
2018-09-12T13:58:32.938Z,3.52
2018-09-12T14:01:01.190Z,3.17
2018-09-12T14:03:29.442Z,3.85
2018-09-12T14:05:57.694Z,3.45
2018-09-12T14:08:25.925Z,3.50
2018-09-12T14:10:54.713Z,4.08
2018-09-12T14:13:23.310Z,3.50
2018-09-12T14:15:51.850Z,3.60
2018-09-12T14:18:20.630Z,3.62
2018-09-12T14:20:48.887Z,3.42
2018-09-12T14:23:17.633Z,3.65
2018-09-12T14:25:45.955Z,3.58
2018-09-12T14:28:14.198Z,4.10
2018-09-12T14:30:42.473Z,3.47
2018-09-12T14:33:11.025Z,4.17
2018-09-12T14:35:39.319Z,4.20
2018-09-12T14:38:08.046Z,3.62
2018-09-12T14:40:36.633Z,3.45
2018-09-12T14:43:05.240Z,3.52
2018-09-12T14:45:33.493Z,3.75
2018-09-12T14:48:01.824Z,3.55
2018-09-12T14:50:30.123Z,3.22
2018-09-12T14:52:58.597Z,3.75
2018-09-12T14:55:26.885Z,3.62
2018-09-12T14:57:55.236Z,3.52
2018-09-12T15:00:26.349Z,3.08
2018-09-12T15:02:55.382Z,3.15
2018-09-12T15:05:24.375Z,3.37
2018-09-12T15:07:52.662Z,3.45
2018-09-12T15:10:21.251Z,3.02
2018-09-12T15:12:50.089Z,3.50
2018-09-12T15:15:18.421Z,3.55
2018-09-12T15:17:46.904Z,3.08
2018-09-12T15:20:16.230Z,3.22
2018-09-12T15:22:45.118Z,3.70
2018-09-12T15:25:14.812Z,3.40
2018-09-12T15:27:43.078Z,3.40
2018-09-12T15:30:11.683Z,3.45
2018-09-12T15:32:40.154Z,2.90
2018-09-12T15:35:08.443Z,3.62
2018-09-12T15:37:36.749Z,3.12
2018-09-12T15:40:05.235Z,3.50
2018-09-12T15:42:34.570Z,3.27
2018-09-12T15:45:02.835Z,3.10
2018-09-12T15:47:31.076Z,3.55
2018-09-12T15:49:59.350Z,3.40
2018-09-12T15:52:28.042Z,3.08
2018-09-12T15:54:56.374Z,3.40
2018-09-12T15:57:25.182Z,3.08
2018-09-12T15:59:53.754Z,3.37
2018-09-12T16:02:22.020Z,3.35
2018-09-12T16:04:50.337Z,3.55
2018-09-12T16:07:18.599Z,3.30
2018-09-12T16:09:46.872Z,3.10
2018-09-12T16:12:15.202Z,3.33
2018-09-12T16:14:44.027Z,3.52
2018-09-12T16:17:12.315Z,2.92
2018-09-12T16:19:40.561Z,2.92
2018-09-12T16:22:15.422Z,3.10
2018-09-12T16:27:23.157Z,3.12
2018-09-12T16:29:51.458Z,2.98
2018-09-12T16:32:20.209Z,3.20
2018-09-12T16:34:48.595Z,3.08
2018-09-12T16:37:16.853Z,3.00
2018-09-12T16:39:45.393Z,3.05
2018-09-12T16:42:13.938Z,2.85
2018-09-12T16:44:42.598Z,3.37
2018-09-12T16:47:12.027Z,2.77
2018-09-12T16:49:40.662Z,2.98
2018-09-12T16:52:09.314Z,3.30
2018-09-12T16:54:37.558Z,3.75
2018-09-12T16:57:06.014Z,4.12
2018-09-12T16:59:34.264Z,4.08
2018-09-12T17:02:02.544Z,3.60
2018-09-12T17:04:30.818Z,3.67
2018-09-12T17:06:59.086Z,4.05
2018-09-12T17:09:27.453Z,5.35
2018-09-12T17:11:55.922Z,5.35
2018-09-12T17:14:24.536Z,4.50
2018-09-12T17:16:53.029Z,4.55
2018-09-12T17:19:21.342Z,5.40
2018-09-12T17:21:49.640Z,5.05
2018-09-12T17:24:20.897Z,4.92
2018-09-12T17:26:49.136Z,5.42
2018-09-12T17:29:17.365Z,5.10
2018-09-12T17:31:45.918Z,5.40
2018-09-12T17:34:14.447Z,4.60
2018-09-12T17:36:42.500Z,5.12
2018-09-12T17:39:11.229Z,6.60
2018-09-12T17:41:39.406Z,8.58
2018-09-12T17:44:07.932Z,6.75
2018-09-12T17:46:35.952Z,6.78
2018-09-12T17:49:04.125Z,6.90
2018-09-12T17:51:32.820Z,6.58
2018-09-12T17:54:01.429Z,5.90
2018-09-12T17:56:29.897Z,5.67
2018-09-12T17:58:57.929Z,6.20
2018-09-12T18:01:26.001Z,6.08
2018-09-12T18:03:54.057Z,5.65
2018-09-12T18:06:22.255Z,6.30
2018-09-12T18:08:50.354Z,5.22
2018-09-12T18:11:18.428Z,5.75
2018-09-12T18:13:46.701Z,6.10
2018-09-12T18:16:14.795Z,5.97
2018-09-12T18:18:42.831Z,6.45
2018-09-12T18:21:10.897Z,7.12
2018-09-12T18:23:43.173Z,6.05
2018-09-12T18:26:11.243Z,7.00
2018-09-12T18:28:39.315Z,6.33
2018-09-12T18:31:07.365Z,5.95
2018-09-12T18:33:35.968Z,6.22
2018-09-12T18:36:04.065Z,6.78
2018-09-12T18:38:32.415Z,6.65
2018-09-12T18:41:00.702Z,6.20
2018-09-12T18:43:29.077Z,5.95
2018-09-12T18:45:57.125Z,6.05
2018-09-12T18:48:25.197Z,5.72
2018-09-12T18:51:03.229Z,6.17
2018-09-12T18:53:31.722Z,6.22
2018-09-12T18:55:59.834Z,6.28
2018-09-12T18:58:27.917Z,5.53
2018-09-12T19:01:01.636Z,5.97
2018-09-12T19:03:29.951Z,5.87
2018-09-12T19:05:58.131Z,6.05
2018-09-12T19:08:26.220Z,6.20
2018-09-12T19:10:54.400Z,6.05
2018-09-12T19:13:22.914Z,6.37
2018-09-12T19:18:34.632Z,5.65
2018-09-12T19:21:02.676Z,6.30
2018-09-12T19:23:31.237Z,6.05
2018-09-12T19:25:59.397Z,5.47
2018-09-12T19:28:27.644Z,5.30
2018-09-12T19:30:55.927Z,5.00
2018-09-12T19:33:24.474Z,5.22
2018-09-12T19:35:52.831Z,5.25
2018-09-12T19:38:22.728Z,4.80
2018-09-12T19:40:51.430Z,5.10
2018-09-12T19:43:19.663Z,5.22
2018-09-12T19:45:47.931Z,4.58
2018-09-12T19:50:43.672Z,4.78
2018-09-12T19:53:12.388Z,4.45
2018-09-12T19:55:41.358Z,4.60
2018-09-12T19:58:09.601Z,5.08
2018-09-12T20:03:05.178Z,5.87
2018-09-12T20:05:34.024Z,5.42
2018-09-12T20:08:02.247Z,5.70
2018-09-12T20:10:30.523Z,5.15
2018-09-12T20:12:59.329Z,5.87
2018-09-12T20:15:27.565Z,5.20
2018-09-12T20:17:55.839Z,5.37
2018-09-12T20:20:24.093Z,5.92
2018-09-12T20:22:52.942Z,5.70
2018-09-12T20:25:21.246Z,5.83
2018-09-12T20:27:49.510Z,5.25
2018-09-12T20:30:18.353Z,5.67
2018-09-12T20:32:47.058Z,5.22
2018-09-12T20:35:15.298Z,6.87
2018-09-12T20:37:49.411Z,6.03
2018-09-12T20:40:18.247Z,5.65
2018-09-12T20:42:46.974Z,5.53
2018-09-12T20:47:49.688Z,5.62
2018-09-12T20:50:18.197Z,5.65
2018-09-12T20:52:47.044Z,5.58
2018-09-12T20:55:15.305Z,5.80
2018-09-12T20:57:44.305Z,6.20
2018-09-12T21:00:12.563Z,5.78
2018-09-12T21:05:16.207Z,6.45
2018-09-12T21:07:44.594Z,6.47
2018-09-12T21:10:12.946Z,6.10
2018-09-12T21:12:46.376Z,6.55
2018-09-12T21:15:14.613Z,5.90
2018-09-12T21:20:23.322Z,6.15
2018-09-12T21:22:52.158Z,6.60
2018-09-12T21:25:20.933Z,6.30
2018-09-12T21:27:49.195Z,5.67
2018-09-12T21:30:17.802Z,6.10
2018-09-12T21:32:46.714Z,6.00
2018-09-12T21:35:15.001Z,5.45
2018-09-12T21:37:49.652Z,6.45
2018-09-12T21:40:18.120Z,5.83
2018-09-12T21:42:46.521Z,6.05
2018-09-12T21:45:14.813Z,6.28
2018-09-12T21:47:43.075Z,5.78
2018-09-12T21:50:11.359Z,5.83
2018-09-12T21:52:39.785Z,6.20
2018-09-12T21:55:08.245Z,5.95
2018-09-12T21:57:36.510Z,5.58
2018-09-12T22:00:05.770Z,5.62
2018-09-12T22:02:34.062Z,6.08
2018-09-12T22:05:02.321Z,5.90
2018-09-12T22:07:31.138Z,6.00
2018-09-12T22:09:59.503Z,6.22
2018-09-12T22:12:27.741Z,5.83
2018-09-12T22:14:56.555Z,5.67
2018-09-12T22:17:25.046Z,5.55
2018-09-12T22:19:53.578Z,6.42
2018-09-12T22:22:22.277Z,6.42
2018-09-12T22:24:51.134Z,5.80
2018-09-12T22:27:19.393Z,6.00
2018-09-12T22:29:47.924Z,5.90
2018-09-12T22:32:16.165Z,5.80
2018-09-12T22:34:44.844Z,5.28
2018-09-12T22:37:13.130Z,5.80
2018-09-12T22:39:41.603Z,5.95
2018-09-12T22:42:09.917Z,5.42
2018-09-12T22:44:38.245Z,5.92
2018-09-12T22:47:06.554Z,5.22
2018-09-12T22:49:35.014Z,5.60
2018-09-12T22:52:03.557Z,5.40
2018-09-12T22:54:31.797Z,5.95
2018-09-12T22:57:00.048Z,5.87
2018-09-12T22:59:28.326Z,5.30
2018-09-12T23:01:56.585Z,5.40
2018-09-12T23:04:25.078Z,5.40
2018-09-12T23:06:53.398Z,5.25
2018-09-12T23:09:21.678Z,5.28
2018-09-12T23:11:49.958Z,5.60
2018-09-12T23:14:18.600Z,5.47
2018-09-12T23:16:46.848Z,5.53
2018-09-12T23:19:15.506Z,5.03
2018-09-12T23:21:43.776Z,5.28
2018-09-12T23:24:12.379Z,5.50
2018-09-12T23:26:40.621Z,5.30
2018-09-12T23:29:08.932Z,5.45
2018-09-12T23:31:37.446Z,6.05
2018-09-12T23:34:06.371Z,6.22
2018-09-12T23:36:34.602Z,4.95
2018-09-12T23:39:03.281Z,5.70
2018-09-12T23:41:31.546Z,5.62
2018-09-12T23:43:59.790Z,5.60
2018-09-12T23:46:28.050Z,5.55
2018-09-12T23:48:56.421Z,5.58
2018-09-12T23:53:58.862Z,6.12
2018-09-12T23:56:27.403Z,5.25
2018-09-12T23:58:55.645Z,5.50
